Time;durP1;ratioP1;P1;durP2;ratioP2;P2;SDS_P1;SDS_P2;PMS_P1;PMS_P2;Temp;Humidity;BMP_temperature;BMP_pressure;BME280_temperature;BME280_humidity;BME280_pressure;Samples;Min_cycle;Max_cycle;Signal;HPM_P1;HPM_P2
2023/07/22 00:00:08;;;;;;;6.57;4.32;;;14.90;72.40;;;;;;5070502;28;20431;-69
2023/07/22 00:02:35;;;;;;;5.30;4.40;;;14.80;72.90;;;;;;5070126;28;20433;-69
2023/07/22 00:05:02;;;;;;;6.20;4.85;;;14.80;74.40;;;;;;5063849;28;20427;-69
2023/07/22 00:07:29;;;;;;;6.80;4.90;;;14.80;74.40;;;;;;5059166;28;20430;-69
2023/07/22 00:09:57;;;;;;;6.55;4.85;;;14.80;74.80;;;;;;5072773;28;20423;-69
2023/07/22 00:12:25;;;;;;;5.63;5.05;;;14.70;74.40;;;;;;5067723;28;20431;-68
2023/07/22 00:14:52;;;;;;;5.90;4.60;;;14.70;74.20;;;;;;5067443;28;20428;-68
2023/07/22 00:17:20;;;;;;;7.40;5.65;;;14.70;74.60;;;;;;5070134;28;20437;-69
2023/07/22 00:19:47;;;;;;;6.65;4.63;;;14.70;74.70;;;;;;5075847;28;20426;-69
2023/07/22 00:22:14;;;;;;;5.43;4.82;;;14.60;74.70;;;;;;5074816;28;20423;-68
2023/07/22 00:24:41;;;;;;;5.93;5.32;;;14.60;75.10;;;;;;5066878;28;20455;-68
2023/07/22 00:27:09;;;;;;;6.18;4.50;;;14.60;75.10;;;;;;5059810;28;20431;-69
2023/07/22 00:29:36;;;;;;;5.95;5.28;;;14.50;75.60;;;;;;5064784;28;20427;-68
2023/07/22 00:32:03;;;;;;;6.30;5.30;;;14.50;76.10;;;;;;5067378;28;20932;-68
2023/07/22 00:34:29;;;;;;;5.55;5.05;;;14.50;75.80;;;;;;5058860;28;20427;-70
2023/07/22 00:36:56;;;;;;;5.70;5.10;;;14.50;75.60;;;;;;5070186;28;20960;-70
2023/07/22 00:39:23;;;;;;;5.40;4.90;;;14.40;75.30;;;;;;5071632;28;20424;-70
2023/07/22 00:41:50;;;;;;;6.38;5.32;;;14.40;75.90;;;;;;5065079;28;20427;-70
2023/07/22 00:44:18;;;;;;;6.00;5.40;;;14.50;75.60;;;;;;5061935;28;20419;-71
2023/07/22 00:46:45;;;;;;;5.63;5.03;;;14.50;78.00;;;;;;5068782;28;20423;-71
2023/07/22 00:49:15;;;;;;;5.75;4.88;;;14.50;76.90;;;;;;5072457;28;20429;-71
2023/07/22 00:51:42;;;;;;;6.70;5.50;;;14.40;76.60;;;;;;5077252;28;20429;-70
2023/07/22 00:54:09;;;;;;;6.30;5.70;;;14.40;77.90;;;;;;5069406;28;20801;-70
2023/07/22 00:56:37;;;;;;;6.20;5.47;;;14.40;78.50;;;;;;5069689;28;20550;-70
2023/07/22 00:59:04;;;;;;;6.50;5.80;;;14.40;79.40;;;;;;5067330;28;20423;-70
2023/07/22 01:01:32;;;;;;;6.50;5.40;;;14.40;78.50;;;;;;5068624;28;21054;-70
2023/07/22 01:04:00;;;;;;;6.60;5.45;;;14.40;79.50;;;;;;5063860;28;20817;-70
2023/07/22 01:06:29;;;;;;;6.18;5.57;;;14.40;78.50;;;;;;5071205;28;20771;-70
2023/07/22 01:08:58;;;;;;;6.85;5.82;;;14.40;78.20;;;;;;5061745;28;21756;-70
2023/07/22 01:11:25;;;;;;;6.43;5.70;;;14.40;78.80;;;;;;5067144;28;20427;-70
2023/07/22 01:13:57;;;;;;;8.15;6.30;;;14.40;79.60;;;;;;5062530;28;20443;-71
2023/07/22 01:16:25;;;;;;;6.97;6.30;;;14.40;80.00;;;;;;5068488;28;20434;-70
2023/07/22 01:18:54;;;;;;;8.52;6.28;;;14.40;80.40;;;;;;5066102;28;20438;-70
2023/07/22 01:21:23;;;;;;;7.00;6.30;;;14.40;80.30;;;;;;5072336;28;20427;-70
2023/07/22 01:23:51;;;;;;;7.10;6.38;;;14.40;80.70;;;;;;5073034;28;20431;-70
2023/07/22 01:26:18;;;;;;;8.63;6.65;;;14.40;81.70;;;;;;5066363;28;20435;-70
2023/07/22 01:28:45;;;;;;;8.27;7.30;;;14.40;80.90;;;;;;5072554;28;20430;-71
2023/07/22 01:31:12;;;;;;;6.85;6.20;;;14.30;82.00;;;;;;5072058;28;20962;-70
2023/07/22 01:33:39;;;;;;;8.02;6.50;;;14.30;82.60;;;;;;5068865;28;20435;-71
2023/07/22 01:36:07;;;;;;;8.77;6.53;;;14.30;83.20;;;;;;5075970;28;20423;-70
2023/07/22 01:38:34;;;;;;;7.82;7.03;;;14.30;83.20;;;;;;5072121;28;20427;-70
2023/07/22 01:41:02;;;;;;;8.13;6.45;;;14.30;84.20;;;;;;5067666;28;20802;-70
2023/07/22 01:43:29;;;;;;;7.50;6.70;;;14.30;84.70;;;;;;5068400;28;20434;-70
2023/07/22 01:45:55;;;;;;;8.07;7.28;;;14.30;84.60;;;;;;5073903;28;20443;-70
2023/07/22 01:48:23;;;;;;;8.48;7.68;;;14.20;84.20;;;;;;5073109;28;20427;-70
2023/07/22 01:50:50;;;;;;;8.20;6.78;;;14.20;83.10;;;;;;5076222;28;20437;-70
2023/07/22 01:53:16;;;;;;;8.30;6.65;;;14.30;83.90;;;;;;5069836;28;20435;-70
2023/07/22 01:55:44;;;;;;;7.60;6.90;;;14.30;82.70;;;;;;5076252;28;20431;-70
2023/07/22 01:58:12;;;;;;;7.43;6.72;;;14.30;83.60;;;;;;5080854;28;20903;-70
2023/07/22 02:00:39;;;;;;;7.22;6.53;;;14.30;84.10;;;;;;5079842;28;20425;-70
2023/07/22 02:03:06;;;;;;;8.35;6.90;;;14.30;83.00;;;;;;5069833;28;20454;-70
2023/07/22 02:05:32;;;;;;;7.43;6.72;;;14.30;82.30;;;;;;5065796;28;20424;-70
2023/07/22 02:07:59;;;;;;;9.38;7.90;;;14.20;83.60;;;;;;5066297;28;20432;-70
2023/07/22 02:10:26;;;;;;;7.80;6.93;;;14.30;84.30;;;;;;5064837;28;20841;-70
2023/07/22 02:12:52;;;;;;;7.95;7.20;;;14.30;83.00;;;;;;5070455;28;20432;-70
2023/07/22 02:15:22;;;;;;;8.50;7.70;;;14.20;83.70;;;;;;5070371;28;20407;-70
2023/07/22 02:17:49;;;;;;;8.25;7.00;;;14.30;82.80;;;;;;5059806;28;20455;-70
2023/07/22 02:20:15;;;;;;;7.85;7.00;;;14.20;84.60;;;;;;5056317;28;20910;-70
2023/07/22 02:22:42;;;;;;;8.60;7.70;;;14.30;85.50;;;;;;5069725;28;20497;-69
2023/07/22 02:25:10;;;;;;;8.17;7.37;;;14.30;84.60;;;;;;5065355;28;20413;-69
2023/07/22 02:27:37;;;;;;;8.23;7.32;;;14.30;84.60;;;;;;5050086;28;20478;-70
2023/07/22 02:30:04;;;;;;;7.75;6.95;;;14.30;84.40;;;;;;5050458;28;20425;-70
2023/07/22 02:32:32;;;;;;;8.07;7.20;;;14.40;84.20;;;;;;5049960;28;20791;-69
2023/07/22 02:34:59;;;;;;;8.35;7.55;;;14.30;84.10;;;;;;5051137;28;20421;-70
2023/07/22 02:37:26;;;;;;;8.50;7.60;;;14.30;84.10;;;;;;5069297;28;20959;-70
2023/07/22 02:39:54;;;;;;;8.07;6.90;;;14.30;83.70;;;;;;5071964;28;20681;-70
2023/07/22 02:42:21;;;;;;;8.43;7.53;;;14.20;84.00;;;;;;5073261;28;20419;-70
2023/07/22 02:44:48;;;;;;;8.13;7.38;;;14.20;83.60;;;;;;5059024;28;20449;-70
2023/07/22 02:47:15;;;;;;;8.33;7.60;;;14.20;83.80;;;;;;5051584;28;20452;-70
2023/07/22 02:49:43;;;;;;;8.27;7.50;;;14.20;83.50;;;;;;5050933;28;20424;-70
2023/07/22 02:52:10;;;;;;;7.80;7.10;;;14.10;84.30;;;;;;5066214;28;20701;-69
2023/07/22 02:54:41;;;;;;;7.82;7.13;;;14.10;84.50;;;;;;5080253;28;20997;-70
2023/07/22 02:57:08;;;;;;;7.73;6.93;;;14.10;83.80;;;;;;5069610;28;20419;-70
2023/07/22 02:59:34;;;;;;;7.75;6.95;;;14.10;84.40;;;;;;5069067;28;20707;-70
2023/07/22 03:02:01;;;;;;;7.63;6.93;;;14.10;84.70;;;;;;5069672;28;20411;-70
2023/07/22 03:04:28;;;;;;;7.87;7.13;;;14.10;84.60;;;;;;5062425;28;20443;-70
2023/07/22 03:06:56;;;;;;;7.73;6.90;;;14.20;85.20;;;;;;5058293;28;20431;-69
2023/07/22 03:09:22;;;;;;;7.65;6.88;;;14.20;84.80;;;;;;5075767;28;20437;-70
2023/07/22 03:11:49;;;;;;;7.10;6.40;;;14.20;85.20;;;;;;5071875;28;20429;-70
2023/07/22 03:14:16;;;;;;;7.00;6.30;;;14.30;85.80;;;;;;5061119;28;20416;-70
2023/07/22 03:16:43;;;;;;;7.55;6.78;;;14.30;85.10;;;;;;5059190;28;20483;-70
2023/07/22 03:19:10;;;;;;;7.55;6.75;;;14.30;85.50;;;;;;5068700;28;20419;-71
2023/07/22 03:21:37;;;;;;;7.13;6.40;;;14.30;85.20;;;;;;5064294;28;20457;-70
2023/07/22 03:24:05;;;;;;;7.20;6.50;;;14.30;84.90;;;;;;5071148;28;20502;-70
2023/07/22 03:26:32;;;;;;;6.75;6.15;;;14.30;85.30;;;;;;5061441;28;20491;-70
2023/07/22 03:28:59;;;;;;;6.60;6.00;;;14.30;84.90;;;;;;5048677;28;20420;-70
2023/07/22 03:31:25;;;;;;;7.00;6.30;;;14.30;86.10;;;;;;5058824;28;20420;-70
2023/07/22 03:33:52;;;;;;;7.22;6.47;;;14.20;85.10;;;;;;5056423;28;20426;-70
2023/07/22 03:36:19;;;;;;;6.80;6.13;;;14.30;84.80;;;;;;5060730;28;20793;-70
2023/07/22 03:38:46;;;;;;;6.68;5.85;;;14.30;84.90;;;;;;5063256;28;20437;-70
2023/07/22 03:41:14;;;;;;;6.50;5.70;;;14.30;84.90;;;;;;5071426;28;20450;-70
2023/07/22 03:43:41;;;;;;;7.18;6.10;;;14.30;85.20;;;;;;5072904;28;20454;-70
2023/07/22 03:46:08;;;;;;;6.45;5.75;;;14.20;83.00;;;;;;5069277;28;20434;-70
2023/07/22 03:48:35;;;;;;;6.30;5.70;;;14.20;83.40;;;;;;5071945;28;20442;-71
2023/07/22 03:51:02;;;;;;;6.80;6.07;;;14.20;83.00;;;;;;5067362;28;20455;-70
2023/07/22 03:53:28;;;;;;;6.30;5.70;;;14.20;82.30;;;;;;5074344;28;20461;-70
2023/07/22 03:55:55;;;;;;;6.20;5.60;;;14.20;83.40;;;;;;5074365;28;20425;-70
2023/07/22 03:58:23;;;;;;;6.32;5.72;;;14.20;84.20;;;;;;5070166;28;22119;-70
2023/07/22 04:00:50;;;;;;;6.30;5.50;;;14.10;83.50;;;;;;5073727;28;20430;-70
2023/07/22 04:03:17;;;;;;;6.30;5.70;;;14.10;83.80;;;;;;5068700;28;20850;-70
2023/07/22 04:05:44;;;;;;;6.90;5.88;;;14.10;84.70;;;;;;5073298;28;20506;-70
2023/07/22 04:08:10;;;;;;;6.57;5.88;;;14.10;84.90;;;;;;5074852;28;20544;-70
2023/07/22 04:10:37;;;;;;;6.22;5.63;;;14.10;84.40;;;;;;5072656;28;20429;-70
2023/07/22 04:13:04;;;;;;;6.10;5.50;;;14.10;83.90;;;;;;5067956;28;20443;-70
2023/07/22 04:15:32;;;;;;;7.57;6.32;;;14.10;84.90;;;;;;5056720;28;20929;-71
2023/07/22 04:17:59;;;;;;;6.40;5.70;;;14.20;85.40;;;;;;5058925;28;20411;-71
2023/07/22 04:20:26;;;;;;;6.07;5.57;;;14.20;83.80;;;;;;5072423;28;20809;-71
2023/07/22 04:22:52;;;;;;;6.18;5.57;;;14.20;82.70;;;;;;5072525;28;20427;-70
2023/07/22 04:25:20;;;;;;;5.68;5.18;;;14.20;81.90;;;;;;5070550;28;20435;-70
2023/07/22 04:27:46;;;;;;;6.57;5.97;;;14.20;83.20;;;;;;5069247;28;20455;-70
2023/07/22 04:30:19;;;;;;;7.38;6.68;;;14.20;83.90;;;;;;5064694;28;20416;-71
2023/07/22 04:32:48;;;;;;;6.60;6.00;;;14.20;84.50;;;;;;5069050;28;20493;-71
2023/07/22 04:35:16;;;;;;;6.88;6.28;;;14.20;84.90;;;;;;5056443;28;20917;-71
2023/07/22 04:37:43;;;;;;;7.22;6.53;;;14.20;84.60;;;;;;5068139;28;20512;-71
2023/07/22 04:40:14;;;;;;;7.00;6.30;;;14.30;85.10;;;;;;5067525;28;20443;-71
2023/07/22 04:42:41;;;;;;;8.27;6.32;;;14.30;85.10;;;;;;5068044;28;20451;-71
2023/07/22 04:45:10;;;;;;;7.97;6.28;;;14.30;86.90;;;;;;5066969;28;20487;-71
2023/07/22 04:47:37;;;;;;;7.40;6.60;;;14.30;87.10;;;;;;5068112;28;20424;-70
2023/07/22 04:50:08;;;;;;;8.45;6.68;;;14.40;89.00;;;;;;5066837;22;21949;-70
2023/07/22 04:52:35;;;;;;;7.50;6.80;;;14.40;89.80;;;;;;5038373;28;20745;-70
2023/07/22 04:55:08;;;;;;;7.10;6.40;;;14.40;90.60;;;;;;5042612;28;20884;-69
2023/07/22 04:57:35;;;;;;;7.53;6.82;;;14.40;90.80;;;;;;5042672;28;20424;-70
2023/07/22 05:00:03;;;;;;;8.55;6.70;;;14.40;91.10;;;;;;5046067;28;20530;-70
2023/07/22 05:02:30;;;;;;;7.90;6.70;;;14.40;91.40;;;;;;5047201;28;20508;-70
2023/07/22 05:04:57;;;;;;;7.50;6.70;;;14.40;91.20;;;;;;5044831;28;20474;-70
2023/07/22 05:07:25;;;;;;;7.97;7.18;;;14.50;91.60;;;;;;5048346;28;20432;-70
2023/07/22 05:09:53;;;;;;;7.80;6.88;;;14.50;92.10;;;;;;5044678;28;20935;-70
2023/07/22 05:12:20;;;;;;;8.00;7.30;;;14.50;92.50;;;;;;5048437;28;20487;-70
2023/07/22 05:14:46;;;;;;;7.30;6.60;;;14.50;92.90;;;;;;5046596;28;20433;-70
2023/07/22 05:17:13;;;;;;;7.60;6.90;;;14.50;93.10;;;;;;5047114;28;20425;-70
2023/07/22 05:19:40;;;;;;;8.32;7.53;;;14.50;93.20;;;;;;5046097;28;20522;-70
2023/07/22 05:22:07;;;;;;;7.80;7.00;;;14.50;93.20;;;;;;5047604;28;20838;-69
2023/07/22 05:24:35;;;;;;;7.25;6.55;;;14.60;92.90;;;;;;5046431;28;20884;-69
2023/07/22 05:27:01;;;;;;;8.88;7.00;;;14.60;92.50;;;;;;5045210;28;20425;-69
2023/07/22 05:29:28;;;;;;;7.80;7.10;;;14.50;92.30;;;;;;5046440;28;20429;-69
2023/07/22 05:31:55;;;;;;;8.98;8.10;;;14.60;92.40;;;;;;5044064;28;20524;-71
2023/07/22 05:34:21;;;;;;;8.27;7.55;;;14.50;92.00;;;;;;5046978;28;20791;-70
2023/07/22 05:36:48;;;;;;;8.13;7.22;;;14.50;92.50;;;;;;5043693;28;20421;-70
2023/07/22 05:39:17;;;;;;;7.90;7.10;;;14.50;92.90;;;;;;5046105;28;20915;-69
2023/07/22 05:41:45;;;;;;;8.05;7.25;;;14.60;92.80;;;;;;5045546;28;20639;-70
2023/07/22 05:44:12;;;;;;;8.98;7.45;;;14.60;91.50;;;;;;5045787;28;20439;-69
2023/07/22 05:46:39;;;;;;;7.25;6.55;;;14.70;90.10;;;;;;5047494;28;20433;-69
2023/07/22 05:49:05;;;;;;;7.25;6.55;;;14.70;87.60;;;;;;5037779;28;20433;-69
2023/07/22 05:51:32;;;;;;;7.47;6.68;;;14.80;87.10;;;;;;5047223;28;20432;-69
2023/07/22 05:53:59;;;;;;;8.23;7.40;;;14.90;86.80;;;;;;5047291;28;20923;-69
2023/07/22 05:56:26;;;;;;;8.35;7.28;;;15.00;87.90;;;;;;5047196;28;20425;-69
2023/07/22 05:58:54;;;;;;;10.17;7.60;;;15.00;90.00;;;;;;5048742;28;20452;-75
2023/07/22 06:01:21;;;;;;;7.97;7.18;;;15.10;90.50;;;;;;5050238;28;20746;-71
2023/07/22 06:03:48;;;;;;;8.43;7.63;;;15.20;90.40;;;;;;5053077;28;20425;-79
2023/07/22 06:06:15;;;;;;;7.95;7.15;;;15.20;90.40;;;;;;5051281;28;20448;-76
2023/07/22 06:08:42;;;;;;;7.50;6.80;;;15.20;90.80;;;;;;5046855;28;20418;-69
2023/07/22 06:11:08;;;;;;;7.90;6.90;;;15.20;90.70;;;;;;5042435;28;20441;-69
2023/07/22 06:13:35;;;;;;;7.85;7.05;;;15.30;90.90;;;;;;5044447;28;20460;-70
2023/07/22 06:16:03;;;;;;;8.38;7.68;;;15.30;90.90;;;;;;5045103;28;20433;-69
2023/07/22 06:18:30;;;;;;;8.40;7.40;;;15.30;90.50;;;;;;5045432;28;20437;-70
2023/07/22 06:20:57;;;;;;;7.93;7.13;;;15.40;90.50;;;;;;5044924;28;20437;-72
2023/07/22 06:23:24;;;;;;;7.28;6.57;;;15.40;90.20;;;;;;5045704;28;20444;-69
2023/07/22 06:25:51;;;;;;;8.20;7.40;;;15.40;90.50;;;;;;5044871;28;20441;-70
2023/07/22 06:28:18;;;;;;;8.18;7.38;;;15.40;90.10;;;;;;5043603;28;20823;-69
2023/07/22 06:30:45;;;;;;;7.40;6.75;;;15.50;90.00;;;;;;5043789;28;20429;-70
2023/07/22 06:33:13;;;;;;;7.60;6.90;;;15.60;90.00;;;;;;5046165;28;20472;-70
2023/07/22 06:35:40;;;;;;;7.40;6.80;;;15.70;89.20;;;;;;5045323;28;20487;-70
2023/07/22 06:38:06;;;;;;;6.93;6.20;;;15.90;86.30;;;;;;5041026;28;20429;-69
2023/07/22 06:40:33;;;;;;;7.00;6.30;;;16.00;80.80;;;;;;5045185;28;20429;-69
2023/07/22 06:43:00;;;;;;;7.05;6.28;;;16.20;77.50;;;;;;5045931;28;20440;-69
2023/07/22 06:45:27;;;;;;;6.95;6.28;;;16.40;78.10;;;;;;5042700;28;20440;-70
2023/07/22 06:47:53;;;;;;;6.50;5.90;;;16.60;75.10;;;;;;5040713;28;20916;-70
2023/07/22 06:50:21;;;;;;;7.78;7.07;;;16.70;74.30;;;;;;5043298;28;20456;-69
2023/07/22 06:52:48;;;;;;;7.80;7.10;;;16.70;72.70;;;;;;5046088;28;20418;-69
2023/07/22 06:55:15;;;;;;;7.47;6.78;;;16.80;72.00;;;;;;5045430;28;20436;-68
2023/07/22 06:57:42;;;;;;;7.20;6.60;;;16.90;72.80;;;;;;5045528;28;20425;-68
2023/07/22 07:00:10;;;;;;;7.45;6.75;;;17.00;71.10;;;;;;5043597;28;20453;-68
2023/07/22 07:02:37;;;;;;;7.38;6.65;;;17.00;71.10;;;;;;5045094;28;20491;-69
2023/07/22 07:05:04;;;;;;;7.40;6.70;;;17.10;71.10;;;;;;5044362;28;20440;-68
2023/07/22 07:07:32;;;;;;;6.90;6.30;;;17.20;69.40;;;;;;5045258;28;20425;-68
2023/07/22 07:09:59;;;;;;;7.90;7.10;;;17.30;69.70;;;;;;5043666;28;20499;-68
2023/07/22 07:12:26;;;;;;;7.10;6.40;;;17.40;68.40;;;;;;5044827;28;20504;-69
2023/07/22 07:14:53;;;;;;;6.90;6.30;;;17.40;67.90;;;;;;5043534;28;20433;-69
2023/07/22 07:17:20;;;;;;;7.20;6.60;;;17.50;66.70;;;;;;5045152;28;20432;-68
2023/07/22 07:19:47;;;;;;;6.82;6.22;;;17.70;67.60;;;;;;5044031;28;20512;-69
2023/07/22 07:22:14;;;;;;;7.20;6.60;;;17.80;66.10;;;;;;5043998;28;20433;-70
2023/07/22 07:24:42;;;;;;;7.47;6.80;;;17.80;65.80;;;;;;5045046;28;20425;-70
2023/07/22 07:27:09;;;;;;;8.00;6.90;;;17.90;65.00;;;;;;5039306;28;20919;-70
2023/07/22 07:29:35;;;;;;;7.20;6.60;;;18.00;64.90;;;;;;5042534;28;20429;-71
2023/07/22 07:32:02;;;;;;;7.63;6.93;;;17.90;64.40;;;;;;5044344;28;20516;-71
2023/07/22 07:34:29;;;;;;;7.13;6.43;;;18.10;65.40;;;;;;5043076;28;20471;-71
2023/07/22 07:36:56;;;;;;;6.70;6.10;;;18.20;65.00;;;;;;5042835;28;20440;-72
2023/07/22 07:39:23;;;;;;;7.60;6.43;;;18.30;63.60;;;;;;5042946;28;20523;-72
2023/07/22 07:41:51;;;;;;;7.20;6.50;;;18.40;64.30;;;;;;5044281;28;20425;-69
2023/07/22 07:44:18;;;;;;;6.80;6.20;;;18.40;63.00;;;;;;5042817;28;20427;-69
2023/07/22 07:46:44;;;;;;;6.72;6.03;;;18.40;63.40;;;;;;5044591;28;20421;-68
2023/07/22 07:49:11;;;;;;;6.70;6.10;;;18.50;62.10;;;;;;5043916;28;20437;-69
2023/07/22 07:51:38;;;;;;;7.60;6.90;;;18.60;61.90;;;;;;5042321;28;20496;-70
2023/07/22 07:54:06;;;;;;;6.97;6.20;;;18.70;62.10;;;;;;5040479;28;20695;-69
2023/07/22 07:56:33;;;;;;;7.07;6.18;;;18.80;61.70;;;;;;5041122;28;20452;-69
2023/07/22 07:59:02;;;;;;;6.70;6.10;;;18.90;61.00;;;;;;5043116;28;20880;-70
2023/07/22 08:01:29;;;;;;;7.10;6.40;;;19.00;60.40;;;;;;5039863;28;20437;-69
2023/07/22 08:03:56;;;;;;;8.68;6.60;;;19.00;59.70;;;;;;5043343;28;20436;-68
2023/07/22 08:06:22;;;;;;;6.90;6.28;;;19.10;60.00;;;;;;5043783;28;20443;-69
2023/07/22 08:08:49;;;;;;;6.90;6.20;;;19.20;59.80;;;;;;5044309;28;20427;-71
2023/07/22 08:11:16;;;;;;;7.15;6.15;;;19.30;60.70;;;;;;5040353;28;20469;-71
2023/07/22 08:13:44;;;;;;;6.60;6.00;;;19.40;58.70;;;;;;5044401;28;20433;-70
2023/07/22 08:16:13;;;;;;;6.80;6.20;;;19.30;57.30;;;;;;5042402;28;20488;-70
2023/07/22 08:18:40;;;;;;;7.05;6.35;;;19.30;58.50;;;;;;5033623;28;20437;-71
2023/07/22 08:21:08;;;;;;;9.70;6.35;;;19.40;58.30;;;;;;5046733;28;20451;-71
2023/07/22 08:23:35;;;;;;;6.40;5.80;;;19.70;58.00;;;;;;5041501;28;20429;-71
2023/07/22 08:26:03;;;;;;;5.80;5.30;;;20.10;57.10;;;;;;5043099;28;20417;-70
2023/07/22 08:28:31;;;;;;;6.60;6.00;;;20.30;57.80;;;;;;5045854;28;20521;-71
2023/07/22 08:30:58;;;;;;;6.75;6.15;;;20.50;56.90;;;;;;5037016;28;20444;-72
2023/07/22 08:33:26;;;;;;;6.20;5.65;;;20.70;51.20;;;;;;5043713;28;20433;-72
2023/07/22 08:35:53;;;;;;;5.95;5.00;;;20.70;51.50;;;;;;5042399;28;20464;-71
2023/07/22 08:38:20;;;;;;;6.88;6.07;;;20.70;49.10;;;;;;5045756;28;20435;-71
2023/07/22 08:40:50;;;;;;;6.70;6.00;;;20.60;49.40;;;;;;5050180;28;20443;-70
2023/07/22 08:43:20;;;;;;;7.00;5.73;;;20.50;49.60;;;;;;5041880;28;20464;-68
2023/07/22 08:45:49;;;;;;;6.13;5.53;;;20.50;49.90;;;;;;5045772;28;20455;-70
2023/07/22 08:48:18;;;;;;;6.00;5.40;;;20.60;49.30;;;;;;5048129;28;20540;-71
2023/07/22 08:50:50;;;;;;;5.78;5.28;;;20.60;49.70;;;;;;5047232;28;20518;-72
2023/07/22 08:53:19;;;;;;;6.20;5.60;;;20.70;48.40;;;;;;5047742;28;20443;-71
2023/07/22 08:55:47;;;;;;;5.35;4.85;;;20.80;48.10;;;;;;5037848;28;20446;-70
2023/07/22 08:58:15;;;;;;;5.00;4.50;;;20.80;48.30;;;;;;5047640;28;20934;-72
2023/07/22 09:00:42;;;;;;;5.10;4.60;;;20.80;48.50;;;;;;5042829;28;20458;-71
2023/07/22 09:03:09;;;;;;;5.10;4.60;;;20.90;48.00;;;;;;5044082;28;20718;-72
2023/07/22 09:05:37;;;;;;;5.30;4.60;;;20.80;47.40;;;;;;5049566;28;20436;-72
2023/07/22 09:08:07;;;;;;;4.90;4.50;;;20.80;48.10;;;;;;5043231;28;20921;-72
2023/07/22 09:10:35;;;;;;;4.82;4.32;;;20.80;48.50;;;;;;5048418;28;20444;-72
2023/07/22 09:13:02;;;;;;;4.60;4.20;;;20.90;48.70;;;;;;5047546;28;20434;-71
2023/07/22 09:15:30;;;;;;;4.75;4.35;;;21.00;47.10;;;;;;5047441;28;20429;-72
2023/07/22 09:17:56;;;;;;;4.80;4.30;;;21.10;46.80;;;;;;5048245;28;20428;-71
2023/07/22 09:20:23;;;;;;;4.32;3.85;;;21.10;46.30;;;;;;5047549;28;20834;-71
2023/07/22 09:22:51;;;;;;;4.00;3.60;;;21.30;45.80;;;;;;5046889;28;20437;-71
2023/07/22 09:25:21;;;;;;;3.58;3.28;;;21.40;44.10;;;;;;5048159;28;20448;-71
2023/07/22 09:27:49;;;;;;;4.63;3.97;;;21.60;44.70;;;;;;5048372;28;20600;-71
2023/07/22 09:30:24;;;;;;;4.13;3.72;;;21.70;44.60;;;;;;5046859;28;20440;-67
2023/07/22 09:32:52;;;;;;;4.90;3.63;;;22.00;44.00;;;;;;5043383;28;20525;-72
2023/07/22 09:35:19;;;;;;;3.77;3.40;;;22.30;43.00;;;;;;5045606;28;20429;-67
2023/07/22 09:37:46;;;;;;;4.30;3.85;;;22.30;43.50;;;;;;5045764;28;20413;-66
2023/07/22 09:40:19;;;;;;;4.30;3.90;;;22.30;43.20;;;;;;5046274;28;20424;-65
2023/07/22 09:42:50;;;;;;;4.18;3.80;;;22.20;42.40;;;;;;5045016;28;20894;-69
2023/07/22 09:45:17;;;;;;;4.20;3.80;;;22.30;42.90;;;;;;5045705;28;20459;-66
2023/07/22 09:47:46;;;;;;;4.13;3.72;;;22.50;41.50;;;;;;5045970;28;20516;-68
2023/07/22 09:50:15;;;;;;;3.90;3.60;;;22.60;41.20;;;;;;5037374;28;20413;-67
2023/07/22 09:52:46;;;;;;;3.70;3.40;;;22.40;40.60;;;;;;5043334;28;20460;-66
2023/07/22 09:55:13;;;;;;;3.50;3.20;;;22.10;40.50;;;;;;5043938;28;20478;-66
2023/07/22 09:57:45;;;;;;;4.00;3.60;;;22.00;42.10;;;;;;5044737;28;20433;-66
2023/07/22 10:00:14;;;;;;;4.32;3.92;;;22.10;41.80;;;;;;5036220;28;20797;-67
2023/07/22 10:02:42;;;;;;;3.70;3.40;;;22.20;41.10;;;;;;5046544;28;20504;-66
2023/07/22 10:05:12;;;;;;;3.30;2.90;;;22.40;41.50;;;;;;5047113;28;20644;-66
2023/07/22 10:07:44;;;;;;;3.40;3.08;;;22.60;38.50;;;;;;5043540;28;20486;-67
2023/07/22 10:10:12;;;;;;;2.90;2.60;;;22.70;38.80;;;;;;5037522;28;20433;-67
2023/07/22 10:12:42;;;;;;;2.90;2.60;;;22.70;37.10;;;;;;5044019;28;20449;-67
2023/07/22 10:15:10;;;;;;;2.60;2.30;;;22.60;38.00;;;;;;5044597;28;20437;-67
2023/07/22 10:17:37;;;;;;;3.33;2.35;;;22.70;36.40;;;;;;5043692;28;20763;-69
2023/07/22 10:20:07;;;;;;;2.50;2.30;;;22.70;37.80;;;;;;5043786;28;20423;-69
2023/07/22 10:22:36;;;;;;;6.63;3.07;;;22.80;35.50;;;;;;5045572;28;20585;-67
2023/07/22 10:25:04;;;;;;;3.95;2.78;;;22.80;35.90;;;;;;5044153;28;20433;-67
2023/07/22 10:27:32;;;;;;;4.32;3.10;;;22.80;36.40;;;;;;5043785;28;20897;-67
2023/07/22 10:30:00;;;;;;;3.15;2.30;;;23.00;37.10;;;;;;5042514;28;20920;-68
2023/07/22 10:32:33;;;;;;;2.30;2.00;;;23.30;36.20;;;;;;5044089;28;20468;-68
2023/07/22 10:35:00;;;;;;;2.70;2.40;;;23.70;35.80;;;;;;5042974;28;20442;-67
2023/07/22 10:37:31;;;;;;;2.90;2.30;;;24.00;34.30;;;;;;5044100;28;20512;-70
2023/07/22 10:40:17;;;;;;;2.50;2.20;;;24.00;34.70;;;;;;5043013;28;20443;-70
2023/07/22 10:42:52;;;;;;;2.55;2.30;;;24.20;32.80;;;;;;5043561;28;20798;-72
2023/07/22 10:45:28;;;;;;;2.20;2.00;;;24.10;33.60;;;;;;5041994;28;20436;-71
2023/07/22 10:48:04;;;;;;;2.67;2.00;;;24.10;32.70;;;;;;5043308;28;20534;-73
2023/07/22 10:50:44;;;;;;;2.83;2.63;;;24.10;33.20;;;;;;5070007;22;20567;-65
2023/07/22 10:53:12;;;;;;;4.05;2.15;;;24.20;33.30;;;;;;5052357;28;20460;-64
2023/07/22 10:56:05;;;;;;;2.63;2.00;;;24.40;34.00;;;;;;5050272;28;20433;-65
2023/07/22 10:58:32;;;;;;;2.30;2.10;;;24.40;32.90;;;;;;5058280;28;20431;-67
2023/07/22 11:01:25;;;;;;;2.80;2.13;;;24.70;32.80;;;;;;5065869;28;20490;-65
2023/07/22 11:04:07;;;;;;;2.42;1.83;;;25.00;31.50;;;;;;5060064;28;20520;-65
2023/07/22 11:06:33;;;;;;;2.42;2.00;;;25.10;32.10;;;;;;5069099;28;20412;-67
2023/07/22 11:09:00;;;;;;;2.83;2.30;;;25.00;32.30;;;;;;5060194;28;20430;-64
2023/07/22 11:11:36;;;;;;;2.45;2.17;;;24.80;33.00;;;;;;5066821;28;20416;-66
2023/07/22 11:14:15;;;;;;;2.30;2.10;;;24.80;31.90;;;;;;5067956;28;20427;-66
2023/07/22 11:16:44;;;;;;;2.80;2.00;;;24.80;30.70;;;;;;5068285;28;20428;-66
2023/07/22 11:19:11;;;;;;;2.80;2.20;;;24.60;33.90;;;;;;5066662;28;20943;-66
2023/07/22 11:21:38;;;;;;;2.78;1.90;;;24.50;32.00;;;;;;5067342;28;20585;-66
2023/07/22 11:24:05;;;;;;;2.83;1.60;;;24.40;31.80;;;;;;5067462;28;20419;-67
2023/07/22 11:26:32;;;;;;;2.17;1.98;;;24.50;33.20;;;;;;5062684;28;20926;-66
2023/07/22 11:29:00;;;;;;;2.20;1.90;;;24.60;34.30;;;;;;5064563;28;20459;-66
2023/07/22 11:31:32;;;;;;;2.45;2.22;;;24.50;32.00;;;;;;5061498;28;20816;-66
2023/07/22 11:34:00;;;;;;;2.20;2.00;;;24.50;32.10;;;;;;5065140;28;20913;-65
2023/07/22 11:36:27;;;;;;;2.60;2.00;;;24.60;32.20;;;;;;5059355;28;20431;-66
2023/07/22 11:38:54;;;;;;;2.92;2.20;;;24.50;33.00;;;;;;5065103;28;20932;-66
2023/07/22 11:41:21;;;;;;;2.10;1.83;;;24.40;31.90;;;;;;5063733;28;20414;-66
2023/07/22 11:43:49;;;;;;;2.60;2.20;;;24.60;30.70;;;;;;5064712;28;20431;-66
2023/07/22 11:46:16;;;;;;;2.40;2.10;;;24.80;32.00;;;;;;5065888;28;20767;-65
2023/07/22 11:48:50;;;;;;;2.20;2.00;;;24.90;31.00;;;;;;5067021;28;20450;-66
2023/07/22 11:51:21;;;;;;;2.10;1.90;;;25.00;31.50;;;;;;5061615;28;20485;-65
2023/07/22 11:53:49;;;;;;;2.40;2.05;;;24.80;30.80;;;;;;5066877;28;20435;-66
2023/07/22 11:56:19;;;;;;;3.33;2.30;;;24.80;31.30;;;;;;5068668;28;20499;-67
2023/07/22 11:58:50;;;;;;;2.60;2.08;;;24.80;31.40;;;;;;5064071;28;20504;-66
2023/07/22 12:01:17;;;;;;;3.20;2.20;;;24.90;33.60;;;;;;5066537;28;20930;-68
2023/07/22 12:03:44;;;;;;;2.63;2.00;;;25.00;32.70;;;;;;5057788;28;20431;-72
2023/07/22 12:06:11;;;;;;;2.60;1.90;;;25.30;32.60;;;;;;5060197;28;20428;-72
2023/07/22 12:08:44;;;;;;;2.10;1.90;;;25.50;31.60;;;;;;5064524;28;20806;-73
2023/07/22 12:11:18;;;;;;;3.13;2.00;;;25.60;29.50;;;;;;5068128;28;20552;-72
2023/07/22 12:13:46;;;;;;;1.90;1.80;;;25.50;29.70;;;;;;5068216;28;20412;-72
2023/07/22 12:16:13;;;;;;;2.20;2.00;;;25.30;30.50;;;;;;5064026;28;20467;-72
2023/07/22 12:18:43;;;;;;;2.20;2.00;;;25.50;30.90;;;;;;5063259;28;20773;-73
2023/07/22 12:21:10;;;;;;;1.70;1.60;;;25.80;28.70;;;;;;5066692;28;20797;-71
2023/07/22 12:23:39;;;;;;;2.10;1.90;;;26.00;28.50;;;;;;5067989;28;20583;-70
2023/07/22 12:26:05;;;;;;;2.40;1.80;;;25.60;28.60;;;;;;5067768;28;20735;-71
2023/07/22 12:28:32;;;;;;;2.10;1.90;;;25.30;29.50;;;;;;5067739;28;20434;-71
2023/07/22 12:30:59;;;;;;;2.10;1.90;;;25.50;28.80;;;;;;5066473;28;20571;-71
2023/07/22 12:33:26;;;;;;;1.85;1.65;;;25.80;29.50;;;;;;5068043;28;20415;-73
2023/07/22 12:35:54;;;;;;;1.90;1.70;;;26.30;28.20;;;;;;5066153;28;20435;-71
2023/07/22 12:38:21;;;;;;;2.30;1.70;;;26.70;27.10;;;;;;5065452;28;20427;-72
2023/07/22 12:40:50;;;;;;;1.90;1.70;;;27.00;26.70;;;;;;5066853;28;20431;-72
2023/07/22 12:43:17;;;;;;;2.10;1.40;;;27.20;27.00;;;;;;5060527;28;20415;-71
2023/07/22 12:45:43;;;;;;;1.60;1.50;;;27.40;26.50;;;;;;5058962;28;20446;-71
2023/07/22 12:48:10;;;;;;;1.70;1.60;;;27.50;27.00;;;;;;5059324;28;20409;-71
2023/07/22 12:50:37;;;;;;;2.35;1.90;;;27.50;26.50;;;;;;5067310;28;20427;-72